Royse City's Hourly Summary for Tuesday, July 10, 2018
Hour Temp
(f)
RH
(%)
Solar Rad.
(MJ/m2)
Rainfall
(in)
Wind
(mph)
7/10/2018 12:00 AM 74 17 0 0 0
7/10/2018 1:00 AM 74 99 0 0 0
7/10/2018 2:00 AM 73 99 0 0 0
7/10/2018 3:00 AM 73 0 0 0 0
7/10/2018 4:00 AM 73 0 0 0 0
7/10/2018 5:00 AM 73 0 0 0 0
7/10/2018 6:00 AM 72 0 0 0 0
7/10/2018 7:00 AM 72 0 0.02 0 0
7/10/2018 8:00 AM 73 0 0.17 0 0
7/10/2018 9:00 AM 75 81 0.8 0 0
7/10/2018 10:00 AM 79 70 1.69 0 0
7/10/2018 11:00 AM 82 63 2.5 0 0.03
7/10/2018 12:00 PM 86 54 2.97 0 0
7/10/2018 1:00 PM 88 43 3.32 0 0
7/10/2018 2:00 PM 91 43 3.38 0 0
7/10/2018 3:00 PM 91 40 2.73 0 0
7/10/2018 4:00 PM 92 39 1.61 0 0
7/10/2018 5:00 PM 89 49 0.91 0 0.14
7/10/2018 6:00 PM 84 59 0.62 0 0.35
7/10/2018 7:00 PM 84 59 0.52 0 0.03
7/10/2018 8:00 PM 84 58 0.26 0 0
7/10/2018 9:00 PM 83 59 0.03 0 0
7/10/2018 10:00 PM 80 65 0 0 0
7/10/2018 11:00 PM 78 71 0 0 0
Data Summary 80 44 21.53 0.00 0.02